Time;durP1;ratioP1;P1;durP2;ratioP2;P2;SDS_P1;SDS_P2;PMS_P1;PMS_P2;Temp;Humidity;BMP_temperature;BMP_pressure;BME280_temperature;BME280_humidity;BME280_pressure;Samples;Min_cycle;Max_cycle;Signal;HPM_P1;HPM_P2
2022/10/20 00:00:14;;;;;;;8.95;7.05;;;;;;;;;;5025279;28;20069;-76
2022/10/20 00:02:40;;;;;;;9.63;6.70;;;;;;;;;;5025730;28;20397;-77
2022/10/20 00:05:06;;;;;;;7.78;6.43;;;;;;;;;;5021439;28;20378;-76
2022/10/20 00:07:32;;;;;;;9.60;6.72;;;;;;;;;;5024872;28;20854;-76
2022/10/20 00:09:58;;;;;;;8.40;5.95;;;;;;;;;;5024337;28;20124;-77
2022/10/20 00:12:24;;;;;;;9.15;6.82;;;;;;;;;;5027930;28;20046;-77
2022/10/20 00:14:50;;;;;;;7.97;6.47;;;;;;;;;;5025803;28;20120;-77
2022/10/20 00:17:16;;;;;;;9.73;7.03;;;;;;;;;;5029295;28;20053;-77
2022/10/20 00:19:42;;;;;;;11.77;6.60;;;;;;;;;;5031722;28;20041;-76
2022/10/20 00:22:08;;;;;;;10.90;6.60;;;;;;;;;;5030201;28;20567;-77
2022/10/20 00:24:37;;;;;;;10.13;6.70;;;;;;;;;;5022706;28;20172;-77
2022/10/20 00:27:03;;;;;;;7.43;6.63;;;;;;;;;;5020502;28;20052;-77
2022/10/20 00:29:29;;;;;;;11.23;6.55;;;;;;;;;;5019374;28;20049;-77
2022/10/20 00:31:55;;;;;;;8.82;6.38;;;;;;;;;;5022319;28;20050;-76
2022/10/20 00:34:21;;;;;;;10.52;7.07;;;;;;;;;;5023273;28;20567;-76
2022/10/20 00:36:50;;;;;;;7.90;5.90;;;;;;;;;;5014747;28;20164;-76
2022/10/20 00:39:16;;;;;;;7.57;6.25;;;;;;;;;;5020245;28;20057;-77
2022/10/20 00:41:42;;;;;;;9.00;6.82;;;;;;;;;;5021983;28;20120;-77
2022/10/20 00:44:27;;;;;;;10.93;6.20;;;;;;;;;;5023871;28;20179;-77
2022/10/20 00:46:53;;;;;;;10.27;6.13;;;;;;;;;;5025047;28;20048;-77
2022/10/20 00:49:24;;;;;;;9.57;6.10;;;;;;;;;;5023282;28;20046;-77
2022/10/20 00:51:52;;;;;;;9.82;6.18;;;;;;;;;;5029580;28;20445;-77
2022/10/20 00:54:19;;;;;;;6.80;6.05;;;;;;;;;;5027010;28;20481;-77
2022/10/20 00:56:47;;;;;;;10.00;6.38;;;;;;;;;;5028345;28;20069;-77
2022/10/20 00:59:14;;;;;;;9.40;6.55;;;;;;;;;;5024952;28;20077;-77
2022/10/20 01:01:41;;;;;;;11.63;6.45;;;;;;;;;;5027267;28;20054;-76
2022/10/20 01:04:07;;;;;;;6.93;6.22;;;;;;;;;;5027565;28;20041;-77
2022/10/20 01:06:33;;;;;;;9.05;6.63;;;;;;;;;;5028566;28;20095;-76
2022/10/20 01:08:59;;;;;;;9.38;6.47;;;;;;;;;;5022366;28;20041;-77
2022/10/20 01:11:31;;;;;;;8.70;6.18;;;;;;;;;;5030600;28;20049;-77
2022/10/20 01:14:20;;;;;;;11.05;6.10;;;;;;;;;;5026321;28;20038;-77
2022/10/20 01:16:46;;;;;;;8.65;5.97;;;;;;;;;;5026882;28;20393;-77
2022/10/20 01:19:25;;;;;;;9.73;6.43;;;;;;;;;;5025616;28;20038;-76
2022/10/20 01:22:06;;;;;;;8.23;5.88;;;;;;;;;;5027502;28;20132;-77
2022/10/20 01:24:58;;;;;;;7.32;6.60;;;;;;;;;;5026035;28;20049;-76
2022/10/20 01:27:36;;;;;;;9.05;6.45;;;;;;;;;;5025390;28;20120;-77
2022/10/20 01:30:18;;;;;;;9.73;6.07;;;;;;;;;;5025408;28;20448;-77
2022/10/20 01:33:03;;;;;;;9.82;6.45;;;;;;;;;;5022561;28;20142;-77
2022/10/20 01:35:48;;;;;;;7.63;6.05;;;;;;;;;;5023480;28;20132;-76
2022/10/20 01:38:18;;;;;;;7.97;6.30;;;;;;;;;;5026095;28;20159;-76
2022/10/20 01:40:49;;;;;;;9.18;6.25;;;;;;;;;;5026517;28;20042;-76
2022/10/20 01:43:18;;;;;;;10.13;5.82;;;;;;;;;;5027452;28;20092;-77
2022/10/20 01:45:45;;;;;;;7.85;6.03;;;;;;;;;;5020155;28;20045;-77
2022/10/20 01:48:12;;;;;;;9.95;6.07;;;;;;;;;;5024391;28;20048;-76
2022/10/20 01:50:39;;;;;;;7.57;5.82;;;;;;;;;;5026809;28;20045;-77
2022/10/20 01:53:05;;;;;;;9.07;6.47;;;;;;;;;;5024030;28;20105;-76
2022/10/20 01:55:32;;;;;;;9.18;6.35;;;;;;;;;;5023658;28;20099;-76
2022/10/20 01:57:58;;;;;;;8.40;6.60;;;;;;;;;;5026557;28;20095;-77
2022/10/20 02:00:24;;;;;;;11.32;6.43;;;;;;;;;;5025661;28;20056;-77
2022/10/20 02:03:09;;;;;;;8.07;6.32;;;;;;;;;;5021450;28;20041;-76
2022/10/20 02:05:35;;;;;;;8.25;6.50;;;;;;;;;;5021761;28;20046;-77
2022/10/20 02:08:11;;;;;;;8.73;6.05;;;;;;;;;;5022540;28;21260;-76
2022/10/20 02:10:46;;;;;;;8.68;6.40;;;;;;;;;;5026904;28;20045;-76
2022/10/20 02:13:12;;;;;;;9.18;6.57;;;;;;;;;;5026247;28;20094;-77
2022/10/20 02:15:40;;;;;;;8.05;6.07;;;;;;;;;;5020811;28;20052;-77
2022/10/20 02:18:07;;;;;;;8.23;5.85;;;;;;;;;;5027971;28;20053;-76
2022/10/20 02:20:33;;;;;;;8.68;6.35;;;;;;;;;;5023869;28;20492;-77
2022/10/20 02:23:00;;;;;;;9.65;6.07;;;;;;;;;;5027845;28;20045;-76
2022/10/20 02:25:27;;;;;;;7.68;6.15;;;;;;;;;;5018962;28;20045;-76
2022/10/20 02:27:54;;;;;;;8.50;5.65;;;;;;;;;;5022052;28;20042;-77
2022/10/20 02:30:20;;;;;;;7.15;6.20;;;;;;;;;;5025175;28;20041;-77
2022/10/20 02:32:49;;;;;;;7.93;6.32;;;;;;;;;;5027038;28;20566;-77
2022/10/20 02:35:26;;;;;;;8.10;6.85;;;;;;;;;;5021628;28;20045;-77
2022/10/20 02:37:52;;;;;;;10.95;6.13;;;;;;;;;;5031776;28;20037;-77
2022/10/20 02:40:20;;;;;;;10.15;6.38;;;;;;;;;;5027903;28;20053;-77
2022/10/20 02:42:46;;;;;;;7.93;5.97;;;;;;;;;;5024507;28;20042;-77
2022/10/20 02:45:12;;;;;;;7.40;6.00;;;;;;;;;;5030100;28;20042;-77
2022/10/20 02:47:39;;;;;;;8.65;6.38;;;;;;;;;;5033885;28;20044;-76
2022/10/20 02:50:05;;;;;;;8.65;6.30;;;;;;;;;;5025882;28;20068;-76
2022/10/20 02:52:31;;;;;;;9.73;6.28;;;;;;;;;;5028499;28;20492;-77
2022/10/20 02:54:57;;;;;;;8.35;6.13;;;;;;;;;;5031541;28;20132;-77
2022/10/20 02:57:23;;;;;;;7.95;5.93;;;;;;;;;;5026437;28;20132;-77
2022/10/20 02:59:49;;;;;;;8.10;6.25;;;;;;;;;;5026357;28;20089;-77
2022/10/20 03:02:18;;;;;;;9.90;6.88;;;;;;;;;;5026892;28;20042;-77
2022/10/20 03:04:44;;;;;;;8.25;6.05;;;;;;;;;;5028905;28;20033;-77
2022/10/20 03:07:10;;;;;;;7.47;6.53;;;;;;;;;;5027622;28;20123;-76
2022/10/20 03:09:36;;;;;;;10.82;6.70;;;;;;;;;;5026126;28;20057;-76
2022/10/20 03:12:03;;;;;;;11.05;6.72;;;;;;;;;;5025214;28;20037;-77
2022/10/20 03:14:29;;;;;;;10.65;6.95;;;;;;;;;;5027576;28;20049;-77
2022/10/20 03:16:55;;;;;;;10.93;6.88;;;;;;;;;;5028857;28;20045;-77
2022/10/20 03:19:21;;;;;;;9.00;6.32;;;;;;;;;;5027993;28;20477;-77
2022/10/20 03:21:48;;;;;;;8.00;6.50;;;;;;;;;;5030763;28;20045;-76
2022/10/20 03:24:14;;;;;;;8.10;6.03;;;;;;;;;;5031977;28;20053;-77
2022/10/20 03:26:40;;;;;;;9.63;6.30;;;;;;;;;;5029519;28;20052;-77
2022/10/20 03:29:06;;;;;;;7.82;6.30;;;;;;;;;;5030000;28;20049;-77
2022/10/20 03:31:32;;;;;;;8.95;6.22;;;;;;;;;;5025934;28;20056;-77
2022/10/20 03:33:58;;;;;;;11.40;6.10;;;;;;;;;;5028323;28;20084;-76
2022/10/20 03:36:24;;;;;;;8.77;6.30;;;;;;;;;;5024026;28;20073;-77
2022/10/20 03:38:50;;;;;;;7.60;6.30;;;;;;;;;;5027738;28;20086;-76
2022/10/20 03:41:16;;;;;;;7.22;5.93;;;;;;;;;;5029255;28;20049;-77
2022/10/20 03:43:42;;;;;;;9.38;6.57;;;;;;;;;;5026819;28;20046;-77
2022/10/20 03:46:09;;;;;;;9.80;6.40;;;;;;;;;;5027094;28;20496;-76
2022/10/20 03:48:36;;;;;;;7.55;6.32;;;;;;;;;;5030017;28;20473;-77
2022/10/20 03:51:02;;;;;;;8.18;6.70;;;;;;;;;;5029054;28;20053;-76
2022/10/20 03:53:29;;;;;;;8.30;6.25;;;;;;;;;;5026089;28;20045;-76
2022/10/20 03:55:55;;;;;;;9.95;6.82;;;;;;;;;;5030852;28;20050;-77
2022/10/20 03:58:21;;;;;;;7.43;5.72;;;;;;;;;;5025827;28;107548;-76
2022/10/20 04:00:47;;;;;;;10.23;6.85;;;;;;;;;;5023606;28;20049;-77
2022/10/20 04:03:14;;;;;;;10.93;6.70;;;;;;;;;;5028461;28;20049;-77
2022/10/20 04:05:40;;;;;;;8.88;6.28;;;;;;;;;;5027721;28;20401;-76
2022/10/20 04:08:06;;;;;;;7.47;5.97;;;;;;;;;;5028044;28;20037;-76
2022/10/20 04:10:32;;;;;;;8.77;5.97;;;;;;;;;;5029723;28;20121;-76
2022/10/20 04:12:59;;;;;;;8.43;6.25;;;;;;;;;;5025541;28;20048;-77
2022/10/20 04:15:25;;;;;;;9.93;6.68;;;;;;;;;;5030948;28;20052;-76
2022/10/20 04:17:51;;;;;;;10.43;6.63;;;;;;;;;;5028105;28;20050;-77
2022/10/20 04:20:17;;;;;;;10.18;6.13;;;;;;;;;;5028629;28;20049;-77
2022/10/20 04:22:43;;;;;;;9.00;6.63;;;;;;;;;;5023987;28;20128;-76
2022/10/20 04:25:12;;;;;;;7.38;6.20;;;;;;;;;;5026335;28;20129;-76
2022/10/20 04:27:39;;;;;;;9.00;6.57;;;;;;;;;;5027061;28;20064;-77
2022/10/20 04:30:05;;;;;;;9.20;6.75;;;;;;;;;;5026993;28;20046;-76
2022/10/20 04:32:31;;;;;;;11.20;6.22;;;;;;;;;;5025481;28;20049;-76
2022/10/20 04:34:57;;;;;;;10.23;6.68;;;;;;;;;;5024674;28;20046;-77
2022/10/20 04:37:23;;;;;;;9.45;6.88;;;;;;;;;;5023222;28;20044;-77
2022/10/20 04:39:52;;;;;;;8.85;6.78;;;;;;;;;;5026955;28;20087;-77
2022/10/20 04:42:18;;;;;;;8.50;6.50;;;;;;;;;;5027090;28;20120;-77
2022/10/20 04:44:44;;;;;;;12.82;6.88;;;;;;;;;;5027726;28;20049;-77
2022/10/20 04:47:10;;;;;;;8.00;6.05;;;;;;;;;;5022489;28;20085;-77
2022/10/20 04:49:36;;;;;;;7.43;6.28;;;;;;;;;;5022639;28;20033;-77
2022/10/20 04:52:03;;;;;;;9.57;7.18;;;;;;;;;;5021794;28;20381;-76
2022/10/20 04:54:29;;;;;;;12.05;7.65;;;;;;;;;;5030186;28;20491;-76
2022/10/20 04:56:56;;;;;;;8.13;6.82;;;;;;;;;;5028615;28;20505;-77
2022/10/20 04:59:22;;;;;;;8.40;7.43;;;;;;;;;;5025057;28;20061;-77
2022/10/20 05:01:48;;;;;;;11.32;7.15;;;;;;;;;;5023099;28;20144;-77
2022/10/20 05:04:20;;;;;;;11.05;7.18;;;;;;;;;;5024966;28;20191;-76
2022/10/20 05:06:46;;;;;;;11.75;7.78;;;;;;;;;;5042191;28;20045;-77
2022/10/20 05:09:12;;;;;;;8.32;7.07;;;;;;;;;;5026366;28;20041;-77
2022/10/20 05:11:38;;;;;;;7.88;6.78;;;;;;;;;;5023461;28;20623;-77
2022/10/20 05:14:05;;;;;;;11.00;7.75;;;;;;;;;;5026788;28;20077;-77
2022/10/20 05:16:34;;;;;;;10.90;7.60;;;;;;;;;;5022039;28;21400;-77
2022/10/20 05:19:00;;;;;;;10.63;7.85;;;;;;;;;;5021901;28;20049;-77
2022/10/20 05:21:27;;;;;;;12.43;8.60;;;;;;;;;;5024769;28;20034;-77
2022/10/20 05:23:57;;;;;;;9.77;8.23;;;;;;;;;;5023913;28;20490;-77
2022/10/20 05:26:23;;;;;;;12.85;9.18;;;;;;;;;;5016165;28;20127;-77
2022/10/20 05:28:50;;;;;;;11.10;7.90;;;;;;;;;;5023989;28;20049;-77
2022/10/20 05:31:17;;;;;;;10.07;7.68;;;;;;;;;;5025336;28;20055;-77
2022/10/20 05:33:44;;;;;;;10.75;8.20;;;;;;;;;;5028743;28;20037;-77
2022/10/20 05:36:12;;;;;;;12.95;7.85;;;;;;;;;;5025500;28;20054;-77
2022/10/20 05:38:39;;;;;;;11.88;7.60;;;;;;;;;;5020347;28;20099;-77
2022/10/20 05:41:09;;;;;;;11.43;7.50;;;;;;;;;;5025508;28;20112;-77
2022/10/20 05:43:35;;;;;;;10.25;8.07;;;;;;;;;;5024087;28;20076;-77
2022/10/20 05:46:02;;;;;;;11.40;8.30;;;;;;;;;;5027912;28;20091;-77
2022/10/20 05:48:28;;;;;;;11.70;8.57;;;;;;;;;;5025416;28;20385;-77
2022/10/20 05:50:54;;;;;;;11.20;7.90;;;;;;;;;;5023763;28;20424;-76
2022/10/20 05:53:20;;;;;;;11.30;8.13;;;;;;;;;;5027498;28;20056;-77
2022/10/20 05:55:46;;;;;;;10.00;8.32;;;;;;;;;;5024651;28;20470;-76
2022/10/20 05:58:12;;;;;;;13.15;8.88;;;;;;;;;;5020259;28;20037;-76
2022/10/20 06:00:41;;;;;;;10.85;8.88;;;;;;;;;;5025476;28;20045;-77
2022/10/20 06:03:07;;;;;;;10.85;8.93;;;;;;;;;;5023265;28;20505;-77
2022/10/20 06:05:33;;;;;;;11.77;8.98;;;;;;;;;;5021039;28;20072;-76
2022/10/20 06:07:59;;;;;;;12.10;8.77;;;;;;;;;;5023911;28;20680;-76
2022/10/20 06:10:25;;;;;;;12.45;8.98;;;;;;;;;;5023532;28;20071;-76
2022/10/20 06:12:51;;;;;;;11.85;9.02;;;;;;;;;;5024661;28;20041;-76
2022/10/20 06:15:20;;;;;;;14.15;9.73;;;;;;;;;;5023133;28;20485;-77
2022/10/20 06:17:46;;;;;;;10.05;8.70;;;;;;;;;;5025791;28;20456;-77
2022/10/20 06:20:12;;;;;;;13.13;9.82;;;;;;;;;;5021724;28;20054;-76
2022/10/20 06:22:38;;;;;;;14.68;9.60;;;;;;;;;;5027448;28;20045;-76
2022/10/20 06:25:04;;;;;;;11.43;9.23;;;;;;;;;;5027741;28;20059;-76
2022/10/20 06:27:30;;;;;;;13.20;9.70;;;;;;;;;;5027111;28;20124;-77
2022/10/20 06:29:56;;;;;;;10.93;9.70;;;;;;;;;;5017262;28;20137;-77
2022/10/20 06:32:22;;;;;;;13.13;9.95;;;;;;;;;;5023006;28;20046;-76
2022/10/20 06:34:48;;;;;;;15.30;10.27;;;;;;;;;;5023622;28;20108;-77
2022/10/20 06:37:15;;;;;;;12.63;9.60;;;;;;;;;;5028954;28;20041;-76
2022/10/20 06:39:40;;;;;;;13.38;9.30;;;;;;;;;;5027794;28;20562;-77
2022/10/20 06:42:07;;;;;;;12.93;10.02;;;;;;;;;;5026026;28;20041;-77
2022/10/20 06:44:33;;;;;;;12.48;10.20;;;;;;;;;;5025695;28;20138;-78
2022/10/20 06:46:59;;;;;;;14.07;10.40;;;;;;;;;;5024481;28;20076;-77
2022/10/20 06:49:25;;;;;;;14.63;10.07;;;;;;;;;;5023269;28;20132;-77
2022/10/20 06:51:53;;;;;;;12.45;9.93;;;;;;;;;;5020594;28;20404;-77
2022/10/20 06:54:19;;;;;;;14.35;10.50;;;;;;;;;;5027462;28;20052;-77
2022/10/20 06:56:45;;;;;;;11.68;10.40;;;;;;;;;;5022224;28;20486;-77
2022/10/20 06:59:11;;;;;;;12.07;10.77;;;;;;;;;;5023456;28;20405;-77
2022/10/20 07:01:38;;;;;;;16.55;10.77;;;;;;;;;;5018704;28;20041;-77
2022/10/20 07:04:06;;;;;;;13.18;11.38;;;;;;;;;;5024234;28;20512;-76
2022/10/20 07:06:33;;;;;;;12.35;10.50;;;;;;;;;;5019032;28;20045;-76
2022/10/20 07:09:02;;;;;;;13.98;10.98;;;;;;;;;;5028146;28;20128;-76
2022/10/20 07:11:29;;;;;;;13.98;11.00;;;;;;;;;;5025424;28;20049;-77
2022/10/20 07:13:59;;;;;;;12.50;11.20;;;;;;;;;;5024878;28;20116;-77
2022/10/20 07:16:26;;;;;;;15.00;11.10;;;;;;;;;;5019368;28;20057;-77
2022/10/20 07:18:58;;;;;;;15.18;11.10;;;;;;;;;;5026267;28;20623;-76
2022/10/20 07:21:29;;;;;;;16.23;12.02;;;;;;;;;;5025975;28;20045;-77
2022/10/20 07:23:55;;;;;;;15.43;11.73;;;;;;;;;;5030775;28;20045;-76
2022/10/20 07:26:23;;;;;;;15.50;11.15;;;;;;;;;;5030662;28;20128;-77
2022/10/20 07:28:50;;;;;;;15.25;11.68;;;;;;;;;;5027609;28;20046;-77
2022/10/20 07:31:24;;;;;;;15.75;11.25;;;;;;;;;;5026117;28;20064;-77
2022/10/20 07:33:50;;;;;;;;;;;;;;;;;;5028711;28;20052;-77
2022/10/20 07:36:18;;;;;;;13.38;11.18;;;;;;;;;;5026072;28;20501;-77
2022/10/20 07:38:44;;;;;;;13.63;12.02;;;;;;;;;;5024571;28;20366;-76
2022/10/20 07:41:11;;;;;;;12.35;10.98;;;;;;;;;;5023127;28;20045;-77
2022/10/20 07:43:37;;;;;;;13.55;12.02;;;;;;;;;;5028700;28;20603;-77
2022/10/20 07:46:04;;;;;;;16.52;12.00;;;;;;;;;;5028413;28;20045;-78
2022/10/20 07:48:30;;;;;;;13.02;11.63;;;;;;;;;;5026411;28;20046;-78
2022/10/20 07:51:12;;;;;;;13.20;10.90;;;;;;;;;;5028940;28;20050;-77
2022/10/20 07:53:38;;;;;;;13.07;11.38;;;;;;;;;;5027860;28;20046;-77
2022/10/20 07:56:04;;;;;;;15.70;12.88;;;;;;;;;;5024658;28;20049;-77
2022/10/20 07:58:30;;;;;;;16.00;11.82;;;;;;;;;;5026827;28;20061;-77
2022/10/20 08:00:56;;;;;;;14.38;10.90;;;;;;;;;;5026546;28;20509;-77
2022/10/20 08:03:22;;;;;;;14.35;12.25;;;;;;;;;;5028003;28;20045;-77
2022/10/20 08:05:48;;;;;;;13.68;11.82;;;;;;;;;;5023788;28;20045;-77
2022/10/20 08:08:14;;;;;;;13.45;11.60;;;;;;;;;;5025206;28;20045;-76
2022/10/20 08:10:40;;;;;;;14.95;12.23;;;;;;;;;;5021092;28;20100;-77
2022/10/20 08:13:06;;;;;;;17.65;12.55;;;;;;;;;;5028221;28;20137;-76
2022/10/20 08:15:32;;;;;;;14.75;12.48;;;;;;;;;;5022784;28;20053;-76
2022/10/20 08:17:58;;;;;;;14.60;12.48;;;;;;;;;;5026277;28;20045;-77
2022/10/20 08:20:25;;;;;;;15.13;12.05;;;;;;;;;;5022670;28;20405;-77
2022/10/20 08:22:51;;;;;;;13.48;12.02;;;;;;;;;;5031034;28;20095;-76
2022/10/20 08:25:17;;;;;;;17.60;12.38;;;;;;;;;;5027853;28;20045;-77
2022/10/20 08:27:43;;;;;;;16.50;12.30;;;;;;;;;;5025795;28;20128;-79
2022/10/20 08:30:09;;;;;;;13.07;11.15;;;;;;;;;;5022849;28;20128;-78
2022/10/20 08:32:35;;;;;;;17.85;11.38;;;;;;;;;;5021088;28;20049;-86
2022/10/20 08:35:01;;;;;;;14.75;11.93;;;;;;;;;;5025785;28;20041;-85
2022/10/20 08:37:29;;;;;;;14.40;12.43;;;;;;;;;;5021765;28;20075;-79
2022/10/20 08:39:55;;;;;;;15.80;11.82;;;;;;;;;;5023352;28;20054;-79
2022/10/20 08:42:21;;;;;;;14.40;12.90;;;;;;;;;;5025489;28;20056;-79
2022/10/20 08:44:48;;;;;;;14.85;12.13;;;;;;;;;;5027640;28;20084;-80
2022/10/20 08:47:34;;;;;;;14.70;12.55;;;;;;;;;;5025362;28;20037;-82
2022/10/20 08:50:01;;;;;;;14.10;11.38;;;;;;;;;;5020709;28;20071;-80
2022/10/20 08:52:27;;;;;;;14.60;11.90;;;;;;;;;;5020211;28;20042;-80
2022/10/20 08:54:54;;;;;;;13.45;11.73;;;;;;;;;;5024428;28;20073;-80
2022/10/20 08:57:22;;;;;;;14.25;12.68;;;;;;;;;;5023741;28;20038;-78
2022/10/20 08:59:51;;;;;;;13.13;11.73;;;;;;;;;;5028328;28;20057;-80
2022/10/20 09:02:17;;;;;;;13.68;11.57;;;;;;;;;;5028004;28;20051;-79
2022/10/20 09:04:44;;;;;;;14.05;12.20;;;;;;;;;;5031308;28;20128;-78
2022/10/20 09:07:18;;;;;;;14.40;12.02;;;;;;;;;;5031813;28;20042;-79
2022/10/20 09:09:44;;;;;;;;;;;;;;;;;;5027977;28;20052;-79
2022/10/20 09:12:12;;;;;;;13.68;11.90;;;;;;;;;;5028119;28;19925;-78
2022/10/20 09:14:38;;;;;;;14.32;12.57;;;;;;;;;;5022382;28;20045;-78
2022/10/20 09:17:05;;;;;;;15.85;12.60;;;;;;;;;;5023457;28;20547;-76
2022/10/20 09:19:32;;;;;;;14.00;12.25;;;;;;;;;;5027203;28;20489;-77
2022/10/20 09:22:01;;;;;;;14.02;12.60;;;;;;;;;;5026120;28;20049;-77
2022/10/20 09:24:29;;;;;;;14.40;12.23;;;;;;;;;;5019988;28;20049;-77
2022/10/20 09:26:55;;;;;;;13.82;12.25;;;;;;;;;;5025810;28;20837;-77
2022/10/20 09:29:22;;;;;;;14.77;12.13;;;;;;;;;;5026165;28;20507;-77
2022/10/20 09:31:53;;;;;;;16.20;12.73;;;;;;;;;;5024147;28;20363;-77
2022/10/20 09:34:23;;;;;;;14.20;12.70;;;;;;;;;;5025202;28;20050;-77
2022/10/20 09:36:50;;;;;;;14.38;11.57;;;;;;;;;;5026307;28;20128;-80
2022/10/20 09:39:21;;;;;;;14.52;12.20;;;;;;;;;;5020719;28;20057;-80
2022/10/20 09:41:48;;;;;;;13.05;11.40;;;;;;;;;;5024329;28;20049;-80
2022/10/20 09:44:15;;;;;;;14.00;11.52;;;;;;;;;;5022136;28;20072;-81
2022/10/20 09:46:47;;;;;;;13.13;11.77;;;;;;;;;;5023910;28;20060;-81
2022/10/20 09:49:24;;;;;;;15.48;12.27;;;;;;;;;;5026637;28;20103;-81
2022/10/20 09:51:52;;;;;;;14.18;11.75;;;;;;;;;;5022258;28;20037;-81
2022/10/20 09:54:23;;;;;;;12.38;11.07;;;;;;;;;;5024991;28;20045;-81
2022/10/20 09:56:51;;;;;;;14.02;11.75;;;;;;;;;;5022450;28;20381;-81
2022/10/20 09:59:26;;;;;;;14.02;11.43;;;;;;;;;;5023626;28;20172;-82
2022/10/20 10:02:03;;;;;;;12.23;11.02;;;;;;;;;;5021741;28;20132;-81
2022/10/20 10:04:35;;;;;;;12.13;10.93;;;;;;;;;;5027137;28;20060;-82
2022/10/20 10:07:08;;;;;;;13.27;11.38;;;;;;;;;;5024040;28;20041;-84
2022/10/20 10:09:36;;;;;;;13.50;10.95;;;;;;;;;;5026504;28;20044;-84
2022/10/20 10:12:05;;;;;;;13.20;11.50;;;;;;;;;;5024676;28;20142;-83
2022/10/20 10:14:34;;;;;;;12.75;11.40;;;;;;;;;;5023551;28;20067;-81
2022/10/20 10:17:03;;;;;;;15.10;11.45;;;;;;;;;;5026050;28;20041;-81
2022/10/20 10:19:30;;;;;;;14.80;9.82;;;;;;;;;;5023860;28;20052;-83
2022/10/20 10:21:58;;;;;;;12.25;10.95;;;;;;;;;;5024428;28;20053;-85
2022/10/20 10:24:29;;;;;;;13.13;11.48;;;;;;;;;;5020214;28;20053;-80
2022/10/20 10:26:55;;;;;;;14.13;11.68;;;;;;;;;;5028934;28;20397;-79
2022/10/20 10:29:21;;;;;;;12.88;11.68;;;;;;;;;;5027006;28;20037;-83
2022/10/20 10:31:55;;;;;;;12.30;10.90;;;;;;;;;;5025249;28;20547;-81
2022/10/20 10:34:24;;;;;;;13.63;10.68;;;;;;;;;;5022920;28;20038;-81
2022/10/20 10:36:50;;;;;;;12.30;10.75;;;;;;;;;;5025455;28;20145;-80
2022/10/20 10:39:16;;;;;;;13.77;11.60;;;;;;;;;;5026335;28;20128;-84
2022/10/20 10:42:03;;;;;;;13.35;11.95;;;;;;;;;;5027110;28;20150;-82
2022/10/20 10:44:47;;;;;;;14.73;11.05;;;;;;;;;;5025471;28;20049;-82
2022/10/20 10:47:19;;;;;;;13.88;11.63;;;;;;;;;;5021867;28;20484;-81
2022/10/20 10:49:45;;;;;;;12.80;11.40;;;;;;;;;;5025990;28;20049;-81
2022/10/20 10:52:11;;;;;;;12.75;11.43;;;;;;;;;;5027906;28;20041;-81
2022/10/20 10:54:43;;;;;;;12.40;11.20;;;;;;;;;;5020078;28;20053;-81
2022/10/20 10:57:16;;;;;;;12.32;11.02;;;;;;;;;;5019276;28;20136;-81
2022/10/20 10:59:42;;;;;;;12.95;11.13;;;;;;;;;;5023137;28;20061;-82
2022/10/20 11:02:18;;;;;;;14.23;11.20;;;;;;;;;;5028629;28;20128;-89
2022/10/20 11:05:02;;;;;;;14.40;12.07;;;;;;;;;;5029678;28;20054;-80
2022/10/20 11:07:37;;;;;;;13.23;12.00;;;;;;;;;;5026788;28;20068;-83
2022/10/20 11:10:22;;;;;;;13.50;11.48;;;;;;;;;;5033899;28;20048;-85
2022/10/20 11:13:07;;;;;;;13.27;11.57;;;;;;;;;;5022497;28;20073;-80
2022/10/20 11:15:52;;;;;;;13.50;12.15;;;;;;;;;;5021768;28;20044;-85
2022/10/20 11:18:18;;;;;;;13.63;12.02;;;;;;;;;;5024432;28;20118;-86
2022/10/20 11:21:16;;;;;;;12.98;11.68;;;;;;;;;;5029352;28;20478;-80
2022/10/20 11:23:51;;;;;;;14.10;11.80;;;;;;;;;;5031622;28;20046;-87
2022/10/20 11:26:26;;;;;;;12.55;11.25;;;;;;;;;;5028006;28;20045;-85
2022/10/20 11:28:53;;;;;;;12.52;11.20;;;;;;;;;;5027659;28;20054;-86
2022/10/20 11:31:39;;;;;;;15.32;12.10;;;;;;;;;;5020553;28;20567;-82
2022/10/20 11:34:09;;;;;;;16.02;12.68;;;;;;;;;;5012300;28;20056;-81
2022/10/20 11:36:38;;;;;;;16.00;13.18;;;;;;;;;;5024788;28;20042;-77
2022/10/20 11:39:05;;;;;;;13.80;12.18;;;;;;;;;;5040191;28;20056;-77
2022/10/20 11:41:31;;;;;;;13.38;11.98;;;;;;;;;;5025574;28;20069;-77
2022/10/20 11:44:01;;;;;;;15.32;12.88;;;;;;;;;;5030520;28;20046;-77
2022/10/20 11:46:36;;;;;;;15.30;13.35;;;;;;;;;;5024845;28;20051;-77
2022/10/20 11:49:03;;;;;;;16.83;13.55;;;;;;;;;;5028878;28;20093;-77
2022/10/20 11:51:29;;;;;;;16.55;13.80;;;;;;;;;;5025808;28;20044;-77
2022/10/20 11:53:58;;;;;;;16.80;13.50;;;;;;;;;;5032183;28;20120;-77
2022/10/20 11:56:35;;;;;;;16.30;13.80;;;;;;;;;;5024558;28;20120;-77
2022/10/20 11:59:01;;;;;;;15.10;13.65;;;;;;;;;;5025772;28;20057;-77
2022/10/20 12:01:27;;;;;;;19.42;14.25;;;;;;;;;;5024999;28;20128;-77
2022/10/20 12:04:04;;;;;;;16.92;14.32;;;;;;;;;;5029715;28;20443;-77
2022/10/20 12:06:38;;;;;;;16.92;13.93;;;;;;;;;;5028513;28;20034;-76
2022/10/20 12:09:19;;;;;;;17.55;14.63;;;;;;;;;;5032196;28;20057;-76
2022/10/20 12:11:56;;;;;;;19.40;14.73;;;;;;;;;;5040241;28;20084;-77
2022/10/20 12:14:22;;;;;;;16.55;14.60;;;;;;;;;;5023664;28;20107;-77
2022/10/20 12:16:51;;;;;;;18.05;14.57;;;;;;;;;;5027666;28;20034;-77
2022/10/20 12:19:21;;;;;;;17.15;14.68;;;;;;;;;;5028430;28;20117;-76
2022/10/20 12:21:54;;;;;;;18.00;15.52;;;;;;;;;;5032341;28;20128;-76
2022/10/20 12:24:34;;;;;;;16.73;14.63;;;;;;;;;;5023943;28;20477;-77
2022/10/20 12:27:06;;;;;;;19.58;15.07;;;;;;;;;;5025484;28;20053;-77
2022/10/20 12:29:32;;;;;;;18.75;15.48;;;;;;;;;;5021198;28;20091;-77
2022/10/20 12:32:19;;;;;;;17.17;15.38;;;;;;;;;;5022815;28;20400;-76
2022/10/20 12:34:46;;;;;;;19.05;15.77;;;;;;;;;;5029154;28;20041;-78
2022/10/20 12:37:19;;;;;;;19.02;15.80;;;;;;;;;;5028862;28;20045;-78
2022/10/20 12:39:46;;;;;;;24.15;16.35;;;;;;;;;;5028779;28;20468;-77
2022/10/20 12:42:20;;;;;;;20.48;15.77;;;;;;;;;;5021714;28;20044;-76
2022/10/20 12:44:46;;;;;;;22.08;17.40;;;;;;;;;;5022576;28;20058;-80
2022/10/20 12:47:21;;;;;;;20.02;16.83;;;;;;;;;;5023186;28;20056;-79
2022/10/20 12:49:53;;;;;;;20.88;17.23;;;;;;;;;;5029866;28;20041;-79
2022/10/20 12:52:20;;;;;;;21.02;17.05;;;;;;;;;;5027714;28;20119;-78
2022/10/20 12:54:52;;;;;;;22.00;18.52;;;;;;;;;;5026886;28;20045;-77
2022/10/20 12:57:35;;;;;;;19.88;16.83;;;;;;;;;;5024496;28;20042;-76
2022/10/20 13:00:06;;;;;;;17.08;15.00;;;;;;;;;;5028632;28;20049;-78
2022/10/20 13:02:44;;;;;;;20.30;15.95;;;;;;;;;;5024205;28;20053;-76
2022/10/20 13:05:13;;;;;;;20.27;16.00;;;;;;;;;;5026140;28;20049;-75
2022/10/20 13:07:45;;;;;;;21.85;15.90;;;;;;;;;;5028302;28;20116;-77
2022/10/20 13:10:24;;;;;;;18.98;16.08;;;;;;;;;;5025881;28;20056;-73
2022/10/20 13:12:50;;;;;;;20.63;17.23;;;;;;;;;;5028726;28;20105;-77
2022/10/20 13:15:19;;;;;;;19.08;16.48;;;;;;;;;;5025215;28;20102;-77
2022/10/20 13:17:59;;;;;;;17.70;15.32;;;;;;;;;;5025674;28;20095;-77
2022/10/20 13:20:44;;;;;;;18.35;15.30;;;;;;;;;;5023341;28;20692;-77
2022/10/20 13:23:12;;;;;;;19.42;15.45;;;;;;;;;;5021172;28;20065;-75
2022/10/20 13:25:46;;;;;;;20.02;15.73;;;;;;;;;;5024872;28;20034;-76
2022/10/20 13:28:12;;;;;;;19.23;16.58;;;;;;;;;;5022300;28;20046;-76
2022/10/20 13:30:58;;;;;;;17.38;15.38;;;;;;;;;;5027345;28;20051;-76
2022/10/20 13:33:27;;;;;;;22.05;15.85;;;;;;;;;;4975725;28;20335;-76
2022/10/20 13:35:57;;;;;;;17.33;15.43;;;;;;;;;;5026471;28;20104;-76
2022/10/20 13:38:25;;;;;;;17.95;16.05;;;;;;;;;;5024588;28;20044;-75
2022/10/20 13:40:58;;;;;;;17.88;15.68;;;;;;;;;;5026038;28;20253;-78
2022/10/20 13:43:27;;;;;;;19.33;16.07;;;;;;;;;;5021725;28;20057;-77
2022/10/20 13:45:56;;;;;;;19.45;16.30;;;;;;;;;;5025542;28;20046;-78
2022/10/20 13:48:48;;;;;;;15.80;14.15;;;;;;;;;;5024066;28;20480;-77
2022/10/20 13:51:41;;;;;;;18.95;16.73;;;;;;;;;;5025059;28;20404;-77
2022/10/20 13:54:07;;;;;;;22.40;17.13;;;;;;;;;;5027359;28;20053;-78
2022/10/20 13:56:37;;;;;;;20.95;16.20;;;;;;;;;;5017777;28;20120;-78
2022/10/20 13:59:04;;;;;;;18.48;15.95;;;;;;;;;;5021607;28;20057;-78
2022/10/20 14:01:32;;;;;;;20.13;17.15;;;;;;;;;;5022151;28;20050;-78
2022/10/20 14:03:58;;;;;;;23.48;16.92;;;;;;;;;;5016802;28;20102;-78
2022/10/20 14:06:27;;;;;;;19.35;16.60;;;;;;;;;;5028106;28;20480;-76
2022/10/20 14:08:53;;;;;;;20.38;17.25;;;;;;;;;;5016676;28;20136;-78
2022/10/20 14:11:20;;;;;;;23.00;18.00;;;;;;;;;;5027741;28;20087;-76
2022/10/20 14:13:46;;;;;;;21.33;17.02;;;;;;;;;;5025956;28;20501;-77
2022/10/20 14:16:22;;;;;;;21.10;18.17;;;;;;;;;;5025158;28;20400;-75
2022/10/20 14:19:01;;;;;;;20.70;18.23;;;;;;;;;;5028112;28;20053;-77
2022/10/20 14:21:27;;;;;;;22.80;17.55;;;;;;;;;;5023551;28;20179;-78
2022/10/20 14:23:56;;;;;;;21.75;17.67;;;;;;;;;;5020751;28;20120;-78
2022/10/20 14:26:23;;;;;;;22.13;18.38;;;;;;;;;;5019450;28;20041;-77
2022/10/20 14:28:50;;;;;;;22.48;19.73;;;;;;;;;;5019984;28;20546;-78
2022/10/20 14:31:19;;;;;;;20.33;18.02;;;;;;;;;;5024676;28;20072;-78
2022/10/20 14:33:50;;;;;;;23.48;18.23;;;;;;;;;;5023665;28;20041;-79
2022/10/20 14:36:22;;;;;;;21.63;18.38;;;;;;;;;;5030248;28;20044;-78